sensor_id;sensor_type;location;lat;lon;timestamp;temperature;humidity
71942;DHT22;59997;53.300;-6.260;2022-10-12T00:01:32;11.42;82.64
71942;DHT22;59997;53.300;-6.260;2022-10-12T00:03:57;11.49;82.69
71942;DHT22;59997;53.300;-6.260;2022-10-12T00:06:23;11.42;83.66
71942;DHT22;59997;53.300;-6.260;2022-10-12T00:08:51;11.30;84.00
71942;DHT22;59997;53.300;-6.260;2022-10-12T00:11:22;11.29;84.01
71942;DHT22;59997;53.300;-6.260;2022-10-12T00:13:48;11.26;84.57
71942;DHT22;59997;53.300;-6.260;2022-10-12T00:16:15;11.22;84.91
71942;DHT22;59997;53.300;-6.260;2022-10-12T00:18:41;11.16;86.07
71942;DHT22;59997;53.300;-6.260;2022-10-12T00:21:12;11.30;82.87
71942;DHT22;59997;53.300;-6.260;2022-10-12T00:23:38;11.50;82.83
71942;DHT22;59997;53.300;-6.260;2022-10-12T00:26:06;11.66;82.04
71942;DHT22;59997;53.300;-6.260;2022-10-12T00:28:33;11.54;83.29
71942;DHT22;59997;53.300;-6.260;2022-10-12T00:31:00;11.49;83.10
71942;DHT22;59997;53.300;-6.260;2022-10-12T00:33:28;11.53;82.75
71942;DHT22;59997;53.300;-6.260;2022-10-12T00:35:54;11.52;83.54
71942;DHT22;59997;53.300;-6.260;2022-10-12T00:38:20;11.52;82.74
71942;DHT22;59997;53.300;-6.260;2022-10-12T00:40:45;11.53;82.78
71942;DHT22;59997;53.300;-6.260;2022-10-12T00:43:44;11.66;81.35
71942;DHT22;59997;53.300;-6.260;2022-10-12T00:48:50;11.98;80.73
71942;DHT22;59997;53.300;-6.260;2022-10-12T00:51:19;12.12;80.39
71942;DHT22;59997;53.300;-6.260;2022-10-12T00:53:51;12.23;79.87
71942;DHT22;59997;53.300;-6.260;2022-10-12T00:56:21;12.25;79.79
71942;DHT22;59997;53.300;-6.260;2022-10-12T00:58:47;12.28;80.25
71942;DHT22;59997;53.300;-6.260;2022-10-12T01:01:14;12.26;80.34
71942;DHT22;59997;53.300;-6.260;2022-10-12T01:03:40;12.34;80.84
71942;DHT22;59997;53.300;-6.260;2022-10-12T01:06:06;12.33;81.35
71942;DHT22;59997;53.300;-6.260;2022-10-12T01:08:32;12.36;81.05
71942;DHT22;59997;53.300;-6.260;2022-10-12T01:10:57;12.33;81.37
71942;DHT22;59997;53.300;-6.260;2022-10-12T01:13:23;12.34;81.91
71942;DHT22;59997;53.300;-6.260;2022-10-12T01:21:26;12.68;80.06
71942;DHT22;59997;53.300;-6.260;2022-10-12T01:24:13;12.82;79.31
71942;DHT22;59997;53.300;-6.260;2022-10-12T01:32:21;12.98;78.28
71942;DHT22;59997;53.300;-6.260;2022-10-12T01:37:56;13.00;78.19
71942;DHT22;59997;53.300;-6.260;2022-10-12T01:40:36;12.99;78.26
71942;DHT22;59997;53.300;-6.260;2022-10-12T01:43:03;13.00;78.39
71942;DHT22;59997;53.300;-6.260;2022-10-12T01:45:28;12.95;78.99
71942;DHT22;59997;53.300;-6.260;2022-10-12T01:47:54;12.95;78.91
71942;DHT22;59997;53.300;-6.260;2022-10-12T01:50:22;12.98;78.66
71942;DHT22;59997;53.300;-6.260;2022-10-12T01:52:57;12.92;79.12
71942;DHT22;59997;53.300;-6.260;2022-10-12T02:03:33;12.87;79.85
71942;DHT22;59997;53.300;-6.260;2022-10-12T02:06:08;12.88;80.00
71942;DHT22;59997;53.300;-6.260;2022-10-12T02:08:40;12.95;79.87
71942;DHT22;59997;53.300;-6.260;2022-10-12T02:11:11;12.98;79.86
71942;DHT22;59997;53.300;-6.260;2022-10-12T02:13:43;13.06;79.78
71942;DHT22;59997;53.300;-6.260;2022-10-12T02:16:13;13.12;79.64
71942;DHT22;59997;53.300;-6.260;2022-10-12T02:18:43;13.15;79.92
71942;DHT22;59997;53.300;-6.260;2022-10-12T02:21:13;13.12;80.11
71942;DHT22;59997;53.300;-6.260;2022-10-12T02:23:41;13.05;80.30
71942;DHT22;59997;53.300;-6.260;2022-10-12T02:26:07;13.12;80.35
71942;DHT22;59997;53.300;-6.260;2022-10-12T02:28:34;13.09;80.57
71942;DHT22;59997;53.300;-6.260;2022-10-12T02:31:09;13.12;80.36
71942;DHT22;59997;53.300;-6.260;2022-10-12T02:33:57;13.15;80.43
71942;DHT22;59997;53.300;-6.260;2022-10-12T02:36:30;13.23;80.25
71942;DHT22;59997;53.300;-6.260;2022-10-12T02:39:04;13.19;80.36
71942;DHT22;59997;53.300;-6.260;2022-10-12T02:41:37;13.23;80.42
71942;DHT22;59997;53.300;-6.260;2022-10-12T02:44:08;13.19;80.71
71942;DHT22;59997;53.300;-6.260;2022-10-12T02:46:35;13.10;80.80
71942;DHT22;59997;53.300;-6.260;2022-10-12T02:49:01;13.12;80.83
71942;DHT22;59997;53.300;-6.260;2022-10-12T02:51:28;13.19;80.74
71942;DHT22;59997;53.300;-6.260;2022-10-12T02:53:54;13.20;80.66
71942;DHT22;59997;53.300;-6.260;2022-10-12T02:56:20;13.28;80.60
71942;DHT22;59997;53.300;-6.260;2022-10-12T02:58:47;13.33;80.65
71942;DHT22;59997;53.300;-6.260;2022-10-12T03:01:13;13.30;80.74
71942;DHT22;59997;53.300;-6.260;2022-10-12T03:03:41;13.24;81.15
71942;DHT22;59997;53.300;-6.260;2022-10-12T03:06:07;13.28;81.18
71942;DHT22;59997;53.300;-6.260;2022-10-12T03:08:33;13.24;81.29
71942;DHT22;59997;53.300;-6.260;2022-10-12T03:11:06;13.17;81.61
71942;DHT22;59997;53.300;-6.260;2022-10-12T03:13:32;13.13;81.91
71942;DHT22;59997;53.300;-6.260;2022-10-12T03:16:09;13.00;82.45
71942;DHT22;59997;53.300;-6.260;2022-10-12T03:18:36;12.89;83.08
71942;DHT22;59997;53.300;-6.260;2022-10-12T03:21:03;12.89;83.17
71942;DHT22;59997;53.300;-6.260;2022-10-12T03:23:28;12.95;82.92
71942;DHT22;59997;53.300;-6.260;2022-10-12T03:25:54;12.91;83.28
71942;DHT22;59997;53.300;-6.260;2022-10-12T03:28:19;12.92;83.57
71942;DHT22;59997;53.300;-6.260;2022-10-12T03:30:45;12.93;83.46
71942;DHT22;59997;53.300;-6.260;2022-10-12T03:33:10;12.92;83.65
71942;DHT22;59997;53.300;-6.260;2022-10-12T03:35:36;12.84;84.17
71942;DHT22;59997;53.300;-6.260;2022-10-12T03:38:02;12.81;84.54
71942;DHT22;59997;53.300;-6.260;2022-10-12T03:40:27;12.87;84.41
71942;DHT22;59997;53.300;-6.260;2022-10-12T03:42:53;12.82;84.56
71942;DHT22;59997;53.300;-6.260;2022-10-12T03:45:18;12.85;84.53
71942;DHT22;59997;53.300;-6.260;2022-10-12T03:47:44;12.87;84.58
71942;DHT22;59997;53.300;-6.260;2022-10-12T03:50:09;12.80;85.07
71942;DHT22;59997;53.300;-6.260;2022-10-12T03:52:35;12.74;85.49
71942;DHT22;59997;53.300;-6.260;2022-10-12T03:55:00;12.67;86.11
71942;DHT22;59997;53.300;-6.260;2022-10-12T03:57:26;12.60;86.82
71942;DHT22;59997;53.300;-6.260;2022-10-12T03:59:51;12.53;87.30
71942;DHT22;59997;53.300;-6.260;2022-10-12T04:02:17;12.47;87.62
71942;DHT22;59997;53.300;-6.260;2022-10-12T04:04:43;12.44;87.71
71942;DHT22;59997;53.300;-6.260;2022-10-12T04:07:08;12.47;87.59
71942;DHT22;59997;53.300;-6.260;2022-10-12T04:09:34;12.44;87.50
71942;DHT22;59997;53.300;-6.260;2022-10-12T04:11:59;12.40;87.42
71942;DHT22;59997;53.300;-6.260;2022-10-12T04:14:24;12.33;87.61
71942;DHT22;59997;53.300;-6.260;2022-10-12T04:16:52;12.37;87.77
71942;DHT22;59997;53.300;-6.260;2022-10-12T04:19:18;12.40;87.63
71942;DHT22;59997;53.300;-6.260;2022-10-12T04:21:44;12.40;87.58
71942;DHT22;59997;53.300;-6.260;2022-10-12T04:24:09;12.40;87.45
71942;DHT22;59997;53.300;-6.260;2022-10-12T04:26:35;12.49;87.46
71942;DHT22;59997;53.300;-6.260;2022-10-12T04:29:00;12.54;87.25
71942;DHT22;59997;53.300;-6.260;2022-10-12T04:31:26;12.54;87.44
71942;DHT22;59997;53.300;-6.260;2022-10-12T04:33:52;12.54;87.51
71942;DHT22;59997;53.300;-6.260;2022-10-12T04:36:22;12.63;87.30
71942;DHT22;59997;53.300;-6.260;2022-10-12T04:38:47;12.64;87.23
71942;DHT22;59997;53.300;-6.260;2022-10-12T04:41:13;12.61;87.30
71942;DHT22;59997;53.300;-6.260;2022-10-12T04:43:38;12.53;87.68
71942;DHT22;59997;53.300;-6.260;2022-10-12T04:46:03;12.58;87.95
71942;DHT22;59997;53.300;-6.260;2022-10-12T04:48:29;12.58;87.95
71942;DHT22;59997;53.300;-6.260;2022-10-12T04:50:54;12.68;87.88
71942;DHT22;59997;53.300;-6.260;2022-10-12T04:53:20;12.69;87.73
71942;DHT22;59997;53.300;-6.260;2022-10-12T04:55:45;12.68;87.85
71942;DHT22;59997;53.300;-6.260;2022-10-12T04:58:11;12.71;87.62
71942;DHT22;59997;53.300;-6.260;2022-10-12T05:00:36;12.73;87.61
71942;DHT22;59997;53.300;-6.260;2022-10-12T05:03:02;12.75;87.48
71942;DHT22;59997;53.300;-6.260;2022-10-12T05:05:27;12.84;87.38
71942;DHT22;59997;53.300;-6.260;2022-10-12T05:07:53;12.92;87.07
71942;DHT22;59997;53.300;-6.260;2022-10-12T05:10:18;12.88;87.22
71942;DHT22;59997;53.300;-6.260;2022-10-12T05:12:44;12.96;87.15
71942;DHT22;59997;53.300;-6.260;2022-10-12T05:15:10;13.00;87.21
71942;DHT22;59997;53.300;-6.260;2022-10-12T05:17:35;13.19;86.95
71942;DHT22;59997;53.300;-6.260;2022-10-12T05:20:01;13.30;86.52
71942;DHT22;59997;53.300;-6.260;2022-10-12T05:22:26;13.28;86.55
71942;DHT22;59997;53.300;-6.260;2022-10-12T05:24:51;13.22;86.55
71942;DHT22;59997;53.300;-6.260;2022-10-12T05:27:17;13.17;86.75
71942;DHT22;59997;53.300;-6.260;2022-10-12T05:29:42;13.08;86.92
71942;DHT22;59997;53.300;-6.260;2022-10-12T05:32:08;12.92;87.46
71942;DHT22;59997;53.300;-6.260;2022-10-12T05:34:33;12.78;87.89
71942;DHT22;59997;53.300;-6.260;2022-10-12T05:36:59;12.69;88.43
71942;DHT22;59997;53.300;-6.260;2022-10-12T05:39:24;12.61;88.80
71942;DHT22;59997;53.300;-6.260;2022-10-12T05:41:50;12.71;88.62
71942;DHT22;59997;53.300;-6.260;2022-10-12T05:44:18;12.77;88.34
71942;DHT22;59997;53.300;-6.260;2022-10-12T05:46:44;12.81;88.22
71942;DHT22;59997;53.300;-6.260;2022-10-12T05:49:09;12.84;88.18
71942;DHT22;59997;53.300;-6.260;2022-10-12T05:51:35;12.96;87.93
71942;DHT22;59997;53.300;-6.260;2022-10-12T05:54:03;13.02;87.75
71942;DHT22;59997;53.300;-6.260;2022-10-12T05:56:28;13.12;87.70
71942;DHT22;59997;53.300;-6.260;2022-10-12T05:58:54;13.19;87.43
71942;DHT22;59997;53.300;-6.260;2022-10-12T06:01:19;13.27;87.13
71942;DHT22;59997;53.300;-6.260;2022-10-12T06:03:44;13.33;86.96
71942;DHT22;59997;53.300;-6.260;2022-10-12T06:06:10;13.43;86.59
71942;DHT22;59997;53.300;-6.260;2022-10-12T06:08:36;13.54;86.16
71942;DHT22;59997;53.300;-6.260;2022-10-12T06:11:01;13.50;86.27
71942;DHT22;59997;53.300;-6.260;2022-10-12T06:13:27;13.40;86.62
71942;DHT22;59997;53.300;-6.260;2022-10-12T06:15:52;13.32;87.18
71942;DHT22;59997;53.300;-6.260;2022-10-12T06:18:18;13.22;87.59
71942;DHT22;59997;53.300;-6.260;2022-10-12T06:20:48;13.05;88.30
71942;DHT22;59997;53.300;-6.260;2022-10-12T06:23:15;13.00;88.33
71942;DHT22;59997;53.300;-6.260;2022-10-12T06:25:41;12.87;88.55
71942;DHT22;59997;53.300;-6.260;2022-10-12T06:28:07;12.85;88.78
71942;DHT22;59997;53.300;-6.260;2022-10-12T06:30:32;12.91;88.93
71942;DHT22;59997;53.300;-6.260;2022-10-12T06:32:58;12.82;88.87
71942;DHT22;59997;53.300;-6.260;2022-10-12T06:35:23;12.88;89.03
71942;DHT22;59997;53.300;-6.260;2022-10-12T06:37:50;12.91;88.95
71942;DHT22;59997;53.300;-6.260;2022-10-12T06:40:16;12.91;89.01
71942;DHT22;59997;53.300;-6.260;2022-10-12T06:42:42;12.88;89.01
71942;DHT22;59997;53.300;-6.260;2022-10-12T06:45:08;12.82;89.33
71942;DHT22;59997;53.300;-6.260;2022-10-12T06:47:34;12.82;89.45
71942;DHT22;59997;53.300;-6.260;2022-10-12T06:49:59;12.74;89.53
71942;DHT22;59997;53.300;-6.260;2022-10-12T06:52:24;12.61;89.77
71942;DHT22;59997;53.300;-6.260;2022-10-12T06:54:50;12.56;90.02
71942;DHT22;59997;53.300;-6.260;2022-10-12T06:57:15;12.63;90.00
71942;DHT22;59997;53.300;-6.260;2022-10-12T06:59:41;12.74;89.81
71942;DHT22;59997;53.300;-6.260;2022-10-12T07:02:09;12.82;89.63
71942;DHT22;59997;53.300;-6.260;2022-10-12T07:04:35;12.78;89.52
71942;DHT22;59997;53.300;-6.260;2022-10-12T07:07:00;12.92;89.29
71942;DHT22;59997;53.300;-6.260;2022-10-12T07:09:26;13.13;88.76
71942;DHT22;59997;53.300;-6.260;2022-10-12T07:11:51;13.26;88.34
71942;DHT22;59997;53.300;-6.260;2022-10-12T07:14:16;13.39;88.06
71942;DHT22;59997;53.300;-6.260;2022-10-12T07:16:42;13.51;87.52
71942;DHT22;59997;53.300;-6.260;2022-10-12T07:19:07;13.55;87.44
71942;DHT22;59997;53.300;-6.260;2022-10-12T07:21:33;13.75;86.81
71942;DHT22;59997;53.300;-6.260;2022-10-12T07:23:58;13.78;86.74
71942;DHT22;59997;53.300;-6.260;2022-10-12T07:26:24;13.75;86.88
71942;DHT22;59997;53.300;-6.260;2022-10-12T07:28:49;13.81;86.82
71942;DHT22;59997;53.300;-6.260;2022-10-12T07:31:15;13.82;86.83
71942;DHT22;59997;53.300;-6.260;2022-10-12T07:33:40;13.86;86.84
71942;DHT22;59997;53.300;-6.260;2022-10-12T07:36:06;13.86;86.76
71942;DHT22;59997;53.300;-6.260;2022-10-12T07:38:32;13.89;86.82
71942;DHT22;59997;53.300;-6.260;2022-10-12T07:41:01;14.05;86.39
71942;DHT22;59997;53.300;-6.260;2022-10-12T07:43:28;14.16;86.16
71942;DHT22;59997;53.300;-6.260;2022-10-12T07:45:54;14.24;86.13
71942;DHT22;59997;53.300;-6.260;2022-10-12T07:48:20;14.31;85.79
71942;DHT22;59997;53.300;-6.260;2022-10-12T07:50:46;14.38;85.44
71942;DHT22;59997;53.300;-6.260;2022-10-12T07:53:12;14.38;85.43
71942;DHT22;59997;53.300;-6.260;2022-10-12T07:55:37;14.33;85.80
71942;DHT22;59997;53.300;-6.260;2022-10-12T07:58:03;14.34;85.98
71942;DHT22;59997;53.300;-6.260;2022-10-12T08:00:29;14.26;86.56
71942;DHT22;59997;53.300;-6.260;2022-10-12T08:02:55;14.13;87.44
71942;DHT22;59997;53.300;-6.260;2022-10-12T08:05:21;14.12;87.93
71942;DHT22;59997;53.300;-6.260;2022-10-12T08:07:48;14.23;87.92
71942;DHT22;59997;53.300;-6.260;2022-10-12T08:10:13;14.21;88.05
71942;DHT22;59997;53.300;-6.260;2022-10-12T08:12:39;14.14;87.84
71942;DHT22;59997;53.300;-6.260;2022-10-12T08:15:05;14.20;88.06
71942;DHT22;59997;53.300;-6.260;2022-10-12T08:17:31;14.31;87.98
71942;DHT22;59997;53.300;-6.260;2022-10-12T08:19:57;14.40;87.61
71942;DHT22;59997;53.300;-6.260;2022-10-12T08:22:22;14.44;87.20
71942;DHT22;59997;53.300;-6.260;2022-10-12T08:24:48;14.60;87.07
71942;DHT22;59997;53.300;-6.260;2022-10-12T08:27:13;14.65;86.53
71942;DHT22;59997;53.300;-6.260;2022-10-12T08:29:39;14.88;85.88
71942;DHT22;59997;53.300;-6.260;2022-10-12T08:32:05;15.04;85.09
71942;DHT22;59997;53.300;-6.260;2022-10-12T08:34:30;15.08;84.97
71942;DHT22;59997;53.300;-6.260;2022-10-12T08:36:57;15.00;84.68
71942;DHT22;59997;53.300;-6.260;2022-10-12T08:39:23;15.31;83.74
71942;DHT22;59997;53.300;-6.260;2022-10-12T08:47:52;15.27;84.15
71942;DHT22;59997;53.300;-6.260;2022-10-12T08:49:59;15.23;83.71
71942;DHT22;59997;53.300;-6.260;2022-10-12T08:52:36;15.06;84.10
71942;DHT22;59997;53.300;-6.260;2022-10-12T08:55:25;14.96;83.96
71942;DHT22;59997;53.300;-6.260;2022-10-12T08:57:53;14.96;84.14
71942;DHT22;59997;53.300;-6.260;2022-10-12T09:00:18;14.83;84.17
71942;DHT22;59997;53.300;-6.260;2022-10-12T09:05:32;14.67;84.46
71942;DHT22;59997;53.300;-6.260;2022-10-12T09:11:39;14.71;84.31
71942;DHT22;59997;53.300;-6.260;2022-10-12T09:14:07;14.69;84.04
71942;DHT22;59997;53.300;-6.260;2022-10-12T09:16:38;14.67;84.01
71942;DHT22;59997;53.300;-6.260;2022-10-12T09:21:44;14.82;83.19
71942;DHT22;59997;53.300;-6.260;2022-10-12T09:24:17;14.96;82.68
71942;DHT22;59997;53.300;-6.260;2022-10-12T09:26:44;15.00;82.72
71942;DHT22;59997;53.300;-6.260;2022-10-12T09:29:28;15.07;82.28
71942;DHT22;59997;53.300;-6.260;2022-10-12T09:34:45;15.44;81.04
71942;DHT22;59997;53.300;-6.260;2022-10-12T09:37:19;15.30;80.38
71942;DHT22;59997;53.300;-6.260;2022-10-12T09:39:46;15.24;80.59
71942;DHT22;59997;53.300;-6.260;2022-10-12T09:42:11;15.16;81.07
71942;DHT22;59997;53.300;-6.260;2022-10-12T09:44:43;15.17;81.00
71942;DHT22;59997;53.300;-6.260;2022-10-12T09:49:46;15.00;81.27
71942;DHT22;59997;53.300;-6.260;2022-10-12T09:52:13;14.88;82.21
71942;DHT22;59997;53.300;-6.260;2022-10-12T09:54:53;14.82;81.26
71942;DHT22;59997;53.300;-6.260;2022-10-12T09:57:22;14.85;82.07
71942;DHT22;59997;53.300;-6.260;2022-10-12T09:59:48;15.06;81.22
71942;DHT22;59997;53.300;-6.260;2022-10-12T10:02:25;15.32;79.65
71942;DHT22;59997;53.300;-6.260;2022-10-12T10:04:53;15.57;79.57
71942;DHT22;59997;53.300;-6.260;2022-10-12T10:07:28;15.63;78.95
71942;DHT22;59997;53.300;-6.260;2022-10-12T10:10:22;15.75;79.01
71942;DHT22;59997;53.300;-6.260;2022-10-12T10:12:57;15.90;78.06
71942;DHT22;59997;53.300;-6.260;2022-10-12T10:15:34;16.13;77.11
71942;DHT22;59997;53.300;-6.260;2022-10-12T10:18:38;16.25;74.84
71942;DHT22;59997;53.300;-6.260;2022-10-12T10:21:08;16.70;73.82
71942;DHT22;59997;53.300;-6.260;2022-10-12T10:23:52;16.66;73.68
71942;DHT22;59997;53.300;-6.260;2022-10-12T10:26:20;16.79;72.88
71942;DHT22;59997;53.300;-6.260;2022-10-12T10:28:48;16.93;72.39
71942;DHT22;59997;53.300;-6.260;2022-10-12T10:34:22;17.07;71.00
71942;DHT22;59997;53.300;-6.260;2022-10-12T10:36:55;17.03;72.56
71942;DHT22;59997;53.300;-6.260;2022-10-12T10:39:24;16.59;72.28
71942;DHT22;59997;53.300;-6.260;2022-10-12T10:41:51;16.76;72.24
71942;DHT22;59997;53.300;-6.260;2022-10-12T10:44:33;16.84;71.89
71942;DHT22;59997;53.300;-6.260;2022-10-12T10:47:08;16.94;71.13
71942;DHT22;59997;53.300;-6.260;2022-10-12T10:49:54;17.17;71.78
71942;DHT22;59997;53.300;-6.260;2022-10-12T10:52:24;17.35;70.25
71942;DHT22;59997;53.300;-6.260;2022-10-12T10:57:37;17.42;71.04
71942;DHT22;59997;53.300;-6.260;2022-10-12T11:00:10;17.80;69.53
71942;DHT22;59997;53.300;-6.260;2022-10-12T11:02:46;17.98;69.56
71942;DHT22;59997;53.300;-6.260;2022-10-12T11:05:19;17.55;69.45
71942;DHT22;59997;53.300;-6.260;2022-10-12T11:08:13;17.47;70.05
71942;DHT22;59997;53.300;-6.260;2022-10-12T11:10:42;17.45;69.76
71942;DHT22;59997;53.300;-6.260;2022-10-12T11:13:22;17.20;70.57
71942;DHT22;59997;53.300;-6.260;2022-10-12T11:18:35;16.59;72.42
71942;DHT22;59997;53.300;-6.260;2022-10-12T11:21:14;16.20;73.92
71942;DHT22;59997;53.300;-6.260;2022-10-12T11:23:52;15.82;74.17
71942;DHT22;59997;53.300;-6.260;2022-10-12T11:26:25;15.69;75.10
71942;DHT22;59997;53.300;-6.260;2022-10-12T11:28:53;15.55;75.50
71942;DHT22;59997;53.300;-6.260;2022-10-12T11:31:29;15.57;75.46
71942;DHT22;59997;53.300;-6.260;2022-10-12T11:33:58;15.44;76.04
71942;DHT22;59997;53.300;-6.260;2022-10-12T11:36:29;15.41;75.56
71942;DHT22;59997;53.300;-6.260;2022-10-12T11:38:57;15.57;75.28
71942;DHT22;59997;53.300;-6.260;2022-10-12T11:41:40;15.69;74.74
71942;DHT22;59997;53.300;-6.260;2022-10-12T11:46:46;15.93;75.52
71942;DHT22;59997;53.300;-6.260;2022-10-12T11:49:22;15.92;75.54
71942;DHT22;59997;53.300;-6.260;2022-10-12T11:51:49;16.03;75.32
71942;DHT22;59997;53.300;-6.260;2022-10-12T11:57:02;15.94;75.19
71942;DHT22;59997;53.300;-6.260;2022-10-12T11:59:46;15.94;75.37
71942;DHT22;59997;53.300;-6.260;2022-10-12T12:04:49;16.27;74.82
71942;DHT22;59997;53.300;-6.260;2022-10-12T12:07:40;16.28;74.53
71942;DHT22;59997;53.300;-6.260;2022-10-12T12:18:24;16.48;73.28
71942;DHT22;59997;53.300;-6.260;2022-10-12T12:23:27;16.51;74.25
71942;DHT22;59997;53.300;-6.260;2022-10-12T12:28:34;16.41;72.86
71942;DHT22;59997;53.300;-6.260;2022-10-12T12:33:34;16.06;72.80
71942;DHT22;59997;53.300;-6.260;2022-10-12T12:36:11;15.90;73.33
71942;DHT22;59997;53.300;-6.260;2022-10-12T12:38:39;15.70;73.86
71942;DHT22;59997;53.300;-6.260;2022-10-12T12:41:13;15.28;72.19
71942;DHT22;59997;53.300;-6.260;2022-10-12T12:43:58;15.04;70.86
71942;DHT22;59997;53.300;-6.260;2022-10-12T12:49:28;14.90;71.13
71942;DHT22;59997;53.300;-6.260;2022-10-12T12:52:26;14.97;71.69
71942;DHT22;59997;53.300;-6.260;2022-10-12T13:00:18;15.24;69.99
71942;DHT22;59997;53.300;-6.260;2022-10-12T13:03:06;15.37;68.73
71942;DHT22;59997;53.300;-6.260;2022-10-12T13:09:15;15.67;70.21
71942;DHT22;59997;53.300;-6.260;2022-10-12T13:20:28;15.44;69.44
71942;DHT22;59997;53.300;-6.260;2022-10-12T13:22:56;15.34;69.07
71942;DHT22;59997;53.300;-6.260;2022-10-12T13:27:52;15.37;70.19
71942;DHT22;59997;53.300;-6.260;2022-10-12T13:35:37;15.31;70.34
71942;DHT22;59997;53.300;-6.260;2022-10-12T13:38:26;15.20;69.96
71942;DHT22;59997;53.300;-6.260;2022-10-12T13:41:05;15.07;71.40
71942;DHT22;59997;53.300;-6.260;2022-10-12T13:44:00;14.96;71.47
71942;DHT22;59997;53.300;-6.260;2022-10-12T13:46:59;14.89;71.04
71942;DHT22;59997;53.300;-6.260;2022-10-12T13:49:28;14.85;71.33
71942;DHT22;59997;53.300;-6.260;2022-10-12T13:52:14;14.88;70.86
71942;DHT22;59997;53.300;-6.260;2022-10-12T13:54:41;14.97;71.43
71942;DHT22;59997;53.300;-6.260;2022-10-12T13:57:29;14.96;72.14
71942;DHT22;59997;53.300;-6.260;2022-10-12T14:02:30;15.07;71.94
71942;DHT22;59997;53.300;-6.260;2022-10-12T14:04:58;15.11;72.17
71942;DHT22;59997;53.300;-6.260;2022-10-12T14:07:30;15.17;71.86
71942;DHT22;59997;53.300;-6.260;2022-10-12T14:09:58;15.17;71.17
71942;DHT22;59997;53.300;-6.260;2022-10-12T14:12:26;15.11;70.98
71942;DHT22;59997;53.300;-6.260;2022-10-12T14:14:54;14.92;71.03
71942;DHT22;59997;53.300;-6.260;2022-10-12T14:17:20;14.80;70.65
71942;DHT22;59997;53.300;-6.260;2022-10-12T14:19:48;14.79;70.25
71942;DHT22;59997;53.300;-6.260;2022-10-12T14:22:33;14.62;70.54
71942;DHT22;59997;53.300;-6.260;2022-10-12T14:25:13;14.49;70.16
71942;DHT22;59997;53.300;-6.260;2022-10-12T14:27:39;14.48;70.66
71942;DHT22;59997;53.300;-6.260;2022-10-12T14:30:20;14.42;70.44
71942;DHT22;59997;53.300;-6.260;2022-10-12T14:32:47;14.44;70.77
71942;DHT22;59997;53.300;-6.260;2022-10-12T14:35:20;14.47;70.48
71942;DHT22;59997;53.300;-6.260;2022-10-12T14:37:47;14.42;69.89
71942;DHT22;59997;53.300;-6.260;2022-10-12T14:43:20;14.36;70.97
71942;DHT22;59997;53.300;-6.260;2022-10-12T14:45:49;14.28;72.58
71942;DHT22;59997;53.300;-6.260;2022-10-12T14:48:18;14.24;70.32
71942;DHT22;59997;53.300;-6.260;2022-10-12T14:50:44;14.27;69.54
71942;DHT22;59997;53.300;-6.260;2022-10-12T14:53:11;14.27;68.77
71942;DHT22;59997;53.300;-6.260;2022-10-12T14:55:37;14.24;68.48
71942;DHT22;59997;53.300;-6.260;2022-10-12T14:58:03;14.20;68.21
71942;DHT22;59997;53.300;-6.260;2022-10-12T15:00:35;14.14;68.10
71942;DHT22;59997;53.300;-6.260;2022-10-12T15:03:02;14.14;67.44
71942;DHT22;59997;53.300;-6.260;2022-10-12T15:05:29;14.14;67.92
71942;DHT22;59997;53.300;-6.260;2022-10-12T15:07:59;14.16;68.12
71942;DHT22;59997;53.300;-6.260;2022-10-12T15:10:25;14.08;68.34
71942;DHT22;59997;53.300;-6.260;2022-10-12T15:12:51;14.01;68.58
71942;DHT22;59997;53.300;-6.260;2022-10-12T15:15:35;14.01;68.49
71942;DHT22;59997;53.300;-6.260;2022-10-12T15:18:02;14.03;67.79
71942;DHT22;59997;53.300;-6.260;2022-10-12T15:20:29;14.02;67.96
71942;DHT22;59997;53.300;-6.260;2022-10-12T15:22:56;14.03;68.77
71942;DHT22;59997;53.300;-6.260;2022-10-12T15:27:56;14.05;69.43
71942;DHT22;59997;53.300;-6.260;2022-10-12T15:30:22;14.01;69.55
71942;DHT22;59997;53.300;-6.260;2022-10-12T15:32:47;13.93;69.60
71942;DHT22;59997;53.300;-6.260;2022-10-12T15:35:23;13.92;71.46
71942;DHT22;59997;53.300;-6.260;2022-10-12T15:37:49;13.86;71.98
71942;DHT22;59997;53.300;-6.260;2022-10-12T15:40:17;13.93;71.03
71942;DHT22;59997;53.300;-6.260;2022-10-12T15:42:42;13.90;72.73
71942;DHT22;59997;53.300;-6.260;2022-10-12T15:45:15;13.86;72.35
71942;DHT22;59997;53.300;-6.260;2022-10-12T15:47:43;13.81;72.04
71942;DHT22;59997;53.300;-6.260;2022-10-12T15:50:08;13.78;71.56
71942;DHT22;59997;53.300;-6.260;2022-10-12T15:52:34;13.75;71.82
71942;DHT22;59997;53.300;-6.260;2022-10-12T15:54:59;13.74;72.12
71942;DHT22;59997;53.300;-6.260;2022-10-12T15:57:25;13.75;71.55
71942;DHT22;59997;53.300;-6.260;2022-10-12T15:59:50;13.71;71.86
71942;DHT22;59997;53.300;-6.260;2022-10-12T16:02:17;13.64;72.09
71942;DHT22;59997;53.300;-6.260;2022-10-12T16:04:43;13.64;72.77
71942;DHT22;59997;53.300;-6.260;2022-10-12T16:07:09;13.61;71.44
71942;DHT22;59997;53.300;-6.260;2022-10-12T16:09:34;13.67;71.97
71942;DHT22;59997;53.300;-6.260;2022-10-12T16:12:00;13.64;71.75
71942;DHT22;59997;53.300;-6.260;2022-10-12T16:14:25;13.55;73.34
71942;DHT22;59997;53.300;-6.260;2022-10-12T16:16:51;13.53;72.09
71942;DHT22;59997;53.300;-6.260;2022-10-12T16:19:16;13.48;72.04
71942;DHT22;59997;53.300;-6.260;2022-10-12T16:21:42;13.43;71.43
71942;DHT22;59997;53.300;-6.260;2022-10-12T16:24:07;13.43;70.55
71942;DHT22;59997;53.300;-6.260;2022-10-12T16:26:33;13.44;70.69
71942;DHT22;59997;53.300;-6.260;2022-10-12T16:28:58;13.36;71.27
71942;DHT22;59997;53.300;-6.260;2022-10-12T16:31:24;13.30;71.98
71942;DHT22;59997;53.300;-6.260;2022-10-12T16:33:49;13.28;72.18
71942;DHT22;59997;53.300;-6.260;2022-10-12T16:36:15;13.30;72.52
71942;DHT22;59997;53.300;-6.260;2022-10-12T16:38:41;13.20;71.83
71942;DHT22;59997;53.300;-6.260;2022-10-12T16:41:12;13.03;73.28
71942;DHT22;59997;53.300;-6.260;2022-10-12T16:43:38;12.95;73.38
71942;DHT22;59997;53.300;-6.260;2022-10-12T16:46:03;12.85;74.07
71942;DHT22;59997;53.300;-6.260;2022-10-12T16:48:29;12.92;73.68
71942;DHT22;59997;53.300;-6.260;2022-10-12T16:50:55;12.95;74.16
71942;DHT22;59997;53.300;-6.260;2022-10-12T16:53:20;12.87;74.78
71942;DHT22;59997;53.300;-6.260;2022-10-12T16:55:46;12.82;75.14
71942;DHT22;59997;53.300;-6.260;2022-10-12T16:58:13;12.81;74.66
71942;DHT22;59997;53.300;-6.260;2022-10-12T17:00:38;12.73;74.27
71942;DHT22;59997;53.300;-6.260;2022-10-12T17:03:05;12.81;73.84
71942;DHT22;59997;53.300;-6.260;2022-10-12T17:05:32;12.71;74.33
71942;DHT22;59997;53.300;-6.260;2022-10-12T17:07:58;12.81;73.33
71942;DHT22;59997;53.300;-6.260;2022-10-12T17:10:24;12.81;72.43
71942;DHT22;59997;53.300;-6.260;2022-10-12T17:12:49;12.87;71.77
71942;DHT22;59997;53.300;-6.260;2022-10-12T17:15:15;12.85;71.92
71942;DHT22;59997;53.300;-6.260;2022-10-12T17:17:40;12.85;71.40
71942;DHT22;59997;53.300;-6.260;2022-10-12T17:20:06;12.82;72.03